sensor_id;sensor_type;location;lat;lon;timestamp;temperature;humidity
9414;DHT22;4746;35.664;139.738;2022-07-09T00:00:36;28.00;99.90
9414;DHT22;4746;35.664;139.738;2022-07-09T00:03:04;28.10;99.90
9414;DHT22;4746;35.664;139.738;2022-07-09T00:05:31;28.10;99.90
9414;DHT22;4746;35.664;139.738;2022-07-09T00:07:59;28.20;99.90
9414;DHT22;4746;35.664;139.738;2022-07-09T00:10:26;28.10;99.90
9414;DHT22;4746;35.664;139.738;2022-07-09T00:12:54;28.30;99.90
9414;DHT22;4746;35.664;139.738;2022-07-09T00:15:21;28.40;99.90
9414;DHT22;4746;35.664;139.738;2022-07-09T00:17:51;28.50;99.90
9414;DHT22;4746;35.664;139.738;2022-07-09T00:20:18;28.70;99.90
9414;DHT22;4746;35.664;139.738;2022-07-09T00:22:46;28.80;99.90
9414;DHT22;4746;35.664;139.738;2022-07-09T00:25:14;28.90;99.90
9414;DHT22;4746;35.664;139.738;2022-07-09T00:27:41;29.00;99.90
9414;DHT22;4746;35.664;139.738;2022-07-09T00:30:09;29.00;99.90
9414;DHT22;4746;35.664;139.738;2022-07-09T00:32:37;29.10;99.90
9414;DHT22;4746;35.664;139.738;2022-07-09T00:35:06;29.20;99.90
9414;DHT22;4746;35.664;139.738;2022-07-09T00:37:33;29.30;99.90
9414;DHT22;4746;35.664;139.738;2022-07-09T00:40:01;29.40;99.90
9414;DHT22;4746;35.664;139.738;2022-07-09T00:42:29;29.40;99.90
9414;DHT22;4746;35.664;139.738;2022-07-09T00:44:58;29.40;99.90
9414;DHT22;4746;35.664;139.738;2022-07-09T00:47:28;29.40;99.90
9414;DHT22;4746;35.664;139.738;2022-07-09T00:49:55;29.50;99.90
9414;DHT22;4746;35.664;139.738;2022-07-09T00:52:24;29.50;99.90
9414;DHT22;4746;35.664;139.738;2022-07-09T00:54:52;29.60;99.90
9414;DHT22;4746;35.664;139.738;2022-07-09T00:57:21;29.60;99.90
9414;DHT22;4746;35.664;139.738;2022-07-09T00:59:49;29.60;99.90
9414;DHT22;4746;35.664;139.738;2022-07-09T01:02:19;29.60;99.90
9414;DHT22;4746;35.664;139.738;2022-07-09T01:04:49;29.70;99.90
9414;DHT22;4746;35.664;139.738;2022-07-09T01:07:17;29.80;99.90
9414;DHT22;4746;35.664;139.738;2022-07-09T01:09:45;29.80;99.90
9414;DHT22;4746;35.664;139.738;2022-07-09T01:12:12;29.90;99.90
9414;DHT22;4746;35.664;139.738;2022-07-09T01:14:41;29.90;99.90
9414;DHT22;4746;35.664;139.738;2022-07-09T01:17:08;29.90;99.90
9414;DHT22;4746;35.664;139.738;2022-07-09T01:19:36;29.90;99.90
9414;DHT22;4746;35.664;139.738;2022-07-09T01:22:04;29.90;99.90
9414;DHT22;4746;35.664;139.738;2022-07-09T01:24:32;30.00;99.90
9414;DHT22;4746;35.664;139.738;2022-07-09T01:27:00;30.10;99.90
9414;DHT22;4746;35.664;139.738;2022-07-09T01:29:28;30.30;99.90
9414;DHT22;4746;35.664;139.738;2022-07-09T01:31:56;30.40;99.90
9414;DHT22;4746;35.664;139.738;2022-07-09T01:34:23;30.50;99.90
9414;DHT22;4746;35.664;139.738;2022-07-09T01:36:51;30.60;99.90
9414;DHT22;4746;35.664;139.738;2022-07-09T01:39:18;30.70;99.90
9414;DHT22;4746;35.664;139.738;2022-07-09T01:41:46;30.80;99.90
9414;DHT22;4746;35.664;139.738;2022-07-09T01:44:14;30.90;99.90
9414;DHT22;4746;35.664;139.738;2022-07-09T01:46:42;31.00;99.90
9414;DHT22;4746;35.664;139.738;2022-07-09T01:49:09;31.00;99.90
9414;DHT22;4746;35.664;139.738;2022-07-09T01:51:37;31.10;99.90
9414;DHT22;4746;35.664;139.738;2022-07-09T01:54:04;31.20;99.90
9414;DHT22;4746;35.664;139.738;2022-07-09T01:56:32;31.30;99.90
9414;DHT22;4746;35.664;139.738;2022-07-09T01:59:01;31.50;99.90
9414;DHT22;4746;35.664;139.738;2022-07-09T02:01:28;31.60;99.90
9414;DHT22;4746;35.664;139.738;2022-07-09T02:03:56;31.60;99.90
9414;DHT22;4746;35.664;139.738;2022-07-09T02:06:25;31.60;99.90
9414;DHT22;4746;35.664;139.738;2022-07-09T02:08:52;31.60;99.90
9414;DHT22;4746;35.664;139.738;2022-07-09T02:11:20;31.80;99.90
9414;DHT22;4746;35.664;139.738;2022-07-09T02:13:47;31.90;99.90
9414;DHT22;4746;35.664;139.738;2022-07-09T02:16:15;32.00;99.90
9414;DHT22;4746;35.664;139.738;2022-07-09T02:18:42;32.20;99.90
9414;DHT22;4746;35.664;139.738;2022-07-09T02:21:10;32.30;99.90
9414;DHT22;4746;35.664;139.738;2022-07-09T02:23:38;32.40;99.90
9414;DHT22;4746;35.664;139.738;2022-07-09T02:26:05;32.40;99.90
9414;DHT22;4746;35.664;139.738;2022-07-09T02:28:33;32.50;99.90
9414;DHT22;4746;35.664;139.738;2022-07-09T02:31:00;32.50;99.90
9414;DHT22;4746;35.664;139.738;2022-07-09T02:33:28;32.60;99.90
9414;DHT22;4746;35.664;139.738;2022-07-09T02:35:57;32.60;99.90
9414;DHT22;4746;35.664;139.738;2022-07-09T02:38:25;32.60;99.90
9414;DHT22;4746;35.664;139.738;2022-07-09T02:40:53;32.70;99.90
9414;DHT22;4746;35.664;139.738;2022-07-09T02:43:20;32.70;99.90
9414;DHT22;4746;35.664;139.738;2022-07-09T02:45:48;32.70;99.90
9414;DHT22;4746;35.664;139.738;2022-07-09T02:48:17;32.60;99.90
9414;DHT22;4746;35.664;139.738;2022-07-09T02:50:45;32.60;99.90
9414;DHT22;4746;35.664;139.738;2022-07-09T02:53:12;32.60;99.90
9414;DHT22;4746;35.664;139.738;2022-07-09T02:55:40;32.50;99.90
9414;DHT22;4746;35.664;139.738;2022-07-09T02:58:07;32.40;99.90
9414;DHT22;4746;35.664;139.738;2022-07-09T03:00:35;32.40;99.90
9414;DHT22;4746;35.664;139.738;2022-07-09T03:03:03;32.30;99.90
9414;DHT22;4746;35.664;139.738;2022-07-09T03:05:30;32.30;99.90
9414;DHT22;4746;35.664;139.738;2022-07-09T03:07:58;32.30;99.90
9414;DHT22;4746;35.664;139.738;2022-07-09T03:10:26;32.40;99.90
9414;DHT22;4746;35.664;139.738;2022-07-09T03:12:53;32.40;99.90
9414;DHT22;4746;35.664;139.738;2022-07-09T03:15:21;32.40;99.90
9414;DHT22;4746;35.664;139.738;2022-07-09T03:17:49;32.50;99.90
9414;DHT22;4746;35.664;139.738;2022-07-09T03:20:16;32.50;99.90
9414;DHT22;4746;35.664;139.738;2022-07-09T03:22:44;32.60;99.90
9414;DHT22;4746;35.664;139.738;2022-07-09T03:25:11;32.70;99.90
9414;DHT22;4746;35.664;139.738;2022-07-09T03:27:39;32.80;99.90
9414;DHT22;4746;35.664;139.738;2022-07-09T03:30:07;33.00;99.90
9414;DHT22;4746;35.664;139.738;2022-07-09T03:32:35;33.10;99.90
9414;DHT22;4746;35.664;139.738;2022-07-09T03:35:02;33.10;99.90
9414;DHT22;4746;35.664;139.738;2022-07-09T03:37:30;33.00;99.90
9414;DHT22;4746;35.664;139.738;2022-07-09T03:39:57;33.00;99.90
9414;DHT22;4746;35.664;139.738;2022-07-09T03:42:25;33.10;99.90
9414;DHT22;4746;35.664;139.738;2022-07-09T03:44:52;33.20;99.90
9414;DHT22;4746;35.664;139.738;2022-07-09T03:47:20;33.40;99.90
9414;DHT22;4746;35.664;139.738;2022-07-09T03:49:47;33.40;99.90
9414;DHT22;4746;35.664;139.738;2022-07-09T03:52:15;33.30;99.90
9414;DHT22;4746;35.664;139.738;2022-07-09T03:54:43;33.30;99.90
9414;DHT22;4746;35.664;139.738;2022-07-09T03:57:11;33.20;99.90
9414;DHT22;4746;35.664;139.738;2022-07-09T03:59:39;33.30;99.90
9414;DHT22;4746;35.664;139.738;2022-07-09T04:02:06;33.40;99.90
9414;DHT22;4746;35.664;139.738;2022-07-09T04:04:34;33.60;99.90
9414;DHT22;4746;35.664;139.738;2022-07-09T04:07:01;33.70;99.90
9414;DHT22;4746;35.664;139.738;2022-07-09T04:09:29;33.80;99.90
9414;DHT22;4746;35.664;139.738;2022-07-09T04:11:56;33.90;99.90
9414;DHT22;4746;35.664;139.738;2022-07-09T04:14:24;33.90;99.90
9414;DHT22;4746;35.664;139.738;2022-07-09T04:16:51;34.00;99.90
9414;DHT22;4746;35.664;139.738;2022-07-09T04:19:19;34.20;99.90
9414;DHT22;4746;35.664;139.738;2022-07-09T04:21:46;34.30;99.90
9414;DHT22;4746;35.664;139.738;2022-07-09T04:24:14;34.30;99.90
9414;DHT22;4746;35.664;139.738;2022-07-09T04:26:42;34.30;99.90
9414;DHT22;4746;35.664;139.738;2022-07-09T04:29:10;34.30;99.90
9414;DHT22;4746;35.664;139.738;2022-07-09T04:31:37;34.20;99.90
9414;DHT22;4746;35.664;139.738;2022-07-09T04:34:05;34.20;99.90
9414;DHT22;4746;35.664;139.738;2022-07-09T04:36:33;34.40;99.90
9414;DHT22;4746;35.664;139.738;2022-07-09T04:39:00;34.50;99.90
9414;DHT22;4746;35.664;139.738;2022-07-09T04:41:28;34.70;99.90
9414;DHT22;4746;35.664;139.738;2022-07-09T04:43:56;34.80;99.90
9414;DHT22;4746;35.664;139.738;2022-07-09T04:46:23;34.70;99.90
9414;DHT22;4746;35.664;139.738;2022-07-09T04:48:53;34.70;99.90
9414;DHT22;4746;35.664;139.738;2022-07-09T04:51:20;34.90;99.90
9414;DHT22;4746;35.664;139.738;2022-07-09T04:53:48;34.90;99.90
9414;DHT22;4746;35.664;139.738;2022-07-09T04:56:15;34.90;99.90
9414;DHT22;4746;35.664;139.738;2022-07-09T04:58:43;35.10;99.90
9414;DHT22;4746;35.664;139.738;2022-07-09T05:01:18;35.20;99.90
9414;DHT22;4746;35.664;139.738;2022-07-09T05:03:47;35.00;99.90
9414;DHT22;4746;35.664;139.738;2022-07-09T05:06:19;34.50;99.90
9414;DHT22;4746;35.664;139.738;2022-07-09T05:08:47;34.40;99.90
9414;DHT22;4746;35.664;139.738;2022-07-09T05:11:14;34.10;99.90
9414;DHT22;4746;35.664;139.738;2022-07-09T05:13:42;33.90;99.90
9414;DHT22;4746;35.664;139.738;2022-07-09T05:16:09;33.90;99.90
9414;DHT22;4746;35.664;139.738;2022-07-09T05:18:37;33.60;99.90
9414;DHT22;4746;35.664;139.738;2022-07-09T05:21:05;33.70;99.90
9414;DHT22;4746;35.664;139.738;2022-07-09T05:23:32;33.60;99.90
9414;DHT22;4746;35.664;139.738;2022-07-09T05:26:00;33.60;99.90
9414;DHT22;4746;35.664;139.738;2022-07-09T05:28:27;33.50;99.90
9414;DHT22;4746;35.664;139.738;2022-07-09T05:30:55;33.70;99.90
9414;DHT22;4746;35.664;139.738;2022-07-09T05:33:23;34.10;99.90
9414;DHT22;4746;35.664;139.738;2022-07-09T05:35:50;34.40;99.90
9414;DHT22;4746;35.664;139.738;2022-07-09T05:38:18;34.80;99.90
9414;DHT22;4746;35.664;139.738;2022-07-09T05:40:45;35.20;99.90
9414;DHT22;4746;35.664;139.738;2022-07-09T05:43:13;35.30;99.90
9414;DHT22;4746;35.664;139.738;2022-07-09T05:45:40;35.50;99.90
9414;DHT22;4746;35.664;139.738;2022-07-09T05:48:08;35.50;99.90
9414;DHT22;4746;35.664;139.738;2022-07-09T05:50:35;35.40;99.90
9414;DHT22;4746;35.664;139.738;2022-07-09T05:53:03;35.30;99.90
9414;DHT22;4746;35.664;139.738;2022-07-09T05:55:30;35.50;99.90
9414;DHT22;4746;35.664;139.738;2022-07-09T05:57:58;35.60;99.90
9414;DHT22;4746;35.664;139.738;2022-07-09T06:00:26;35.10;99.90
9414;DHT22;4746;35.664;139.738;2022-07-09T06:02:53;34.80;99.90
9414;DHT22;4746;35.664;139.738;2022-07-09T06:05:21;34.40;99.90
9414;DHT22;4746;35.664;139.738;2022-07-09T06:07:48;34.40;99.90
9414;DHT22;4746;35.664;139.738;2022-07-09T06:10:16;34.50;99.90
9414;DHT22;4746;35.664;139.738;2022-07-09T06:12:43;34.50;99.90
9414;DHT22;4746;35.664;139.738;2022-07-09T06:15:11;34.20;99.90
9414;DHT22;4746;35.664;139.738;2022-07-09T06:17:39;34.30;99.90
9414;DHT22;4746;35.664;139.738;2022-07-09T06:20:07;34.40;99.90
9414;DHT22;4746;35.664;139.738;2022-07-09T06:22:35;34.80;99.90
9414;DHT22;4746;35.664;139.738;2022-07-09T06:25:05;35.30;99.90
9414;DHT22;4746;35.664;139.738;2022-07-09T06:27:33;35.50;99.90
9414;DHT22;4746;35.664;139.738;2022-07-09T06:30:02;35.70;99.90
9414;DHT22;4746;35.664;139.738;2022-07-09T06:32:30;36.00;99.90
9414;DHT22;4746;35.664;139.738;2022-07-09T06:34:57;36.70;99.90
9414;DHT22;4746;35.664;139.738;2022-07-09T06:37:25;37.00;99.90
9414;DHT22;4746;35.664;139.738;2022-07-09T06:39:52;37.20;99.90
9414;DHT22;4746;35.664;139.738;2022-07-09T06:42:21;37.40;99.90
9414;DHT22;4746;35.664;139.738;2022-07-09T06:44:49;37.40;99.90
9414;DHT22;4746;35.664;139.738;2022-07-09T06:47:17;37.30;99.90
9414;DHT22;4746;35.664;139.738;2022-07-09T06:49:44;37.80;99.90
9414;DHT22;4746;35.664;139.738;2022-07-09T06:52:12;37.90;99.90
9414;DHT22;4746;35.664;139.738;2022-07-09T06:54:40;38.10;99.90
9414;DHT22;4746;35.664;139.738;2022-07-09T06:57:08;38.40;99.90
9414;DHT22;4746;35.664;139.738;2022-07-09T06:59:40;38.60;99.90
9414;DHT22;4746;35.664;139.738;2022-07-09T07:02:07;38.70;99.90
9414;DHT22;4746;35.664;139.738;2022-07-09T07:04:35;38.30;99.90
9414;DHT22;4746;35.664;139.738;2022-07-09T07:07:02;38.20;99.90
9414;DHT22;4746;35.664;139.738;2022-07-09T07:09:31;37.70;99.90
9414;DHT22;4746;35.664;139.738;2022-07-09T07:11:58;37.50;99.90
9414;DHT22;4746;35.664;139.738;2022-07-09T07:14:26;38.10;99.90
9414;DHT22;4746;35.664;139.738;2022-07-09T07:16:54;38.30;99.90
9414;DHT22;4746;35.664;139.738;2022-07-09T07:19:21;38.90;99.90
9414;DHT22;4746;35.664;139.738;2022-07-09T07:21:49;38.80;99.90
9414;DHT22;4746;35.664;139.738;2022-07-09T07:24:17;38.50;99.90
9414;DHT22;4746;35.664;139.738;2022-07-09T07:26:44;38.10;99.90
9414;DHT22;4746;35.664;139.738;2022-07-09T07:29:12;37.70;99.90
9414;DHT22;4746;35.664;139.738;2022-07-09T07:31:39;37.30;99.90
9414;DHT22;4746;35.664;139.738;2022-07-09T07:34:07;36.90;99.90
9414;DHT22;4746;35.664;139.738;2022-07-09T07:36:34;37.00;99.90
9414;DHT22;4746;35.664;139.738;2022-07-09T07:39:02;36.70;99.90
9414;DHT22;4746;35.664;139.738;2022-07-09T07:41:30;36.40;99.90
9414;DHT22;4746;35.664;139.738;2022-07-09T07:43:57;35.80;99.90
9414;DHT22;4746;35.664;139.738;2022-07-09T07:46:25;35.40;99.90
9414;DHT22;4746;35.664;139.738;2022-07-09T07:48:52;35.30;99.90
9414;DHT22;4746;35.664;139.738;2022-07-09T07:51:20;35.10;99.90
9414;DHT22;4746;35.664;139.738;2022-07-09T07:53:47;35.00;99.90
9414;DHT22;4746;35.664;139.738;2022-07-09T07:56:17;34.60;99.90
9414;DHT22;4746;35.664;139.738;2022-07-09T07:58:44;34.70;99.90
9414;DHT22;4746;35.664;139.738;2022-07-09T08:01:12;34.60;99.90
9414;DHT22;4746;35.664;139.738;2022-07-09T08:03:39;34.20;99.90
9414;DHT22;4746;35.664;139.738;2022-07-09T08:06:07;34.20;99.90
9414;DHT22;4746;35.664;139.738;2022-07-09T08:08:34;34.30;99.90
9414;DHT22;4746;35.664;139.738;2022-07-09T08:11:02;34.50;99.90
9414;DHT22;4746;35.664;139.738;2022-07-09T08:13:29;34.60;99.90
9414;DHT22;4746;35.664;139.738;2022-07-09T08:15:57;34.70;99.90
9414;DHT22;4746;35.664;139.738;2022-07-09T08:18:25;34.40;99.90
9414;DHT22;4746;35.664;139.738;2022-07-09T08:20:53;34.20;99.90
9414;DHT22;4746;35.664;139.738;2022-07-09T08:23:20;33.80;99.90
9414;DHT22;4746;35.664;139.738;2022-07-09T08:25:48;33.50;99.90
9414;DHT22;4746;35.664;139.738;2022-07-09T08:28:18;33.40;99.90
9414;DHT22;4746;35.664;139.738;2022-07-09T08:30:46;32.80;99.90
9414;DHT22;4746;35.664;139.738;2022-07-09T08:33:13;32.70;99.90
9414;DHT22;4746;35.664;139.738;2022-07-09T08:35:42;32.40;99.90
9414;DHT22;4746;35.664;139.738;2022-07-09T08:38:09;32.50;99.90
9414;DHT22;4746;35.664;139.738;2022-07-09T08:40:37;32.90;99.90
9414;DHT22;4746;35.664;139.738;2022-07-09T08:43:04;33.20;99.90
9414;DHT22;4746;35.664;139.738;2022-07-09T08:45:32;33.20;99.90
9414;DHT22;4746;35.664;139.738;2022-07-09T08:48:01;33.30;99.90
9414;DHT22;4746;35.664;139.738;2022-07-09T08:50:29;33.40;99.90
9414;DHT22;4746;35.664;139.738;2022-07-09T08:52:58;33.40;99.90
9414;DHT22;4746;35.664;139.738;2022-07-09T08:55:29;33.40;99.90
9414;DHT22;4746;35.664;139.738;2022-07-09T08:57:59;33.40;99.90
9414;DHT22;4746;35.664;139.738;2022-07-09T09:00:26;33.20;99.90
9414;DHT22;4746;35.664;139.738;2022-07-09T09:02:54;32.70;99.90
9414;DHT22;4746;35.664;139.738;2022-07-09T09:05:21;32.30;99.90
9414;DHT22;4746;35.664;139.738;2022-07-09T09:07:49;31.90;99.90
9414;DHT22;4746;35.664;139.738;2022-07-09T09:10:26;31.70;99.90
9414;DHT22;4746;35.664;139.738;2022-07-09T09:12:58;31.50;99.90
9414;DHT22;4746;35.664;139.738;2022-07-09T09:15:28;31.10;99.90
9414;DHT22;4746;35.664;139.738;2022-07-09T09:17:56;30.70;99.90
9414;DHT22;4746;35.664;139.738;2022-07-09T09:20:24;30.50;99.90
9414;DHT22;4746;35.664;139.738;2022-07-09T09:22:53;30.40;99.90
9414;DHT22;4746;35.664;139.738;2022-07-09T09:25:26;30.20;99.90
9414;DHT22;4746;35.664;139.738;2022-07-09T09:27:59;29.90;99.90
9414;DHT22;4746;35.664;139.738;2022-07-09T09:30:30;29.70;99.90
9414;DHT22;4746;35.664;139.738;2022-07-09T09:32:59;29.60;99.90
9414;DHT22;4746;35.664;139.738;2022-07-09T09:35:29;29.50;99.90
9414;DHT22;4746;35.664;139.738;2022-07-09T09:38:00;29.20;99.90
9414;DHT22;4746;35.664;139.738;2022-07-09T09:40:28;28.90;99.90
9414;DHT22;4746;35.664;139.738;2022-07-09T09:42:56;28.80;99.90
9414;DHT22;4746;35.664;139.738;2022-07-09T09:45:28;28.60;99.90
9414;DHT22;4746;35.664;139.738;2022-07-09T09:47:59;28.60;99.90
9414;DHT22;4746;35.664;139.738;2022-07-09T09:50:28;28.40;99.90
9414;DHT22;4746;35.664;139.738;2022-07-09T09:52:56;28.20;99.90
9414;DHT22;4746;35.664;139.738;2022-07-09T09:55:24;28.10;99.90
9414;DHT22;4746;35.664;139.738;2022-07-09T09:57:52;28.00;99.90
9414;DHT22;4746;35.664;139.738;2022-07-09T10:00:20;27.90;99.90
9414;DHT22;4746;35.664;139.738;2022-07-09T10:02:48;27.90;99.90
9414;DHT22;4746;35.664;139.738;2022-07-09T10:05:17;27.90;99.90
9414;DHT22;4746;35.664;139.738;2022-07-09T10:07:45;27.80;99.90
9414;DHT22;4746;35.664;139.738;2022-07-09T10:10:20;27.70;99.90
9414;DHT22;4746;35.664;139.738;2022-07-09T10:12:48;27.70;99.90
9414;DHT22;4746;35.664;139.738;2022-07-09T10:15:25;27.70;99.90
9414;DHT22;4746;35.664;139.738;2022-07-09T10:17:53;27.70;99.90
9414;DHT22;4746;35.664;139.738;2022-07-09T10:20:33;27.70;99.90
9414;DHT22;4746;35.664;139.738;2022-07-09T10:23:03;27.50;99.90
9414;DHT22;4746;35.664;139.738;2022-07-09T10:25:43;27.40;99.90
9414;DHT22;4746;35.664;139.738;2022-07-09T10:28:17;27.40;99.90
9414;DHT22;4746;35.664;139.738;2022-07-09T10:30:47;27.20;99.90
9414;DHT22;4746;35.664;139.738;2022-07-09T10:33:32;27.20;99.90
9414;DHT22;4746;35.664;139.738;2022-07-09T10:36:15;27.20;99.90
9414;DHT22;4746;35.664;139.738;2022-07-09T10:38:54;27.20;99.90
9414;DHT22;4746;35.664;139.738;2022-07-09T10:41:23;27.30;99.90
9414;DHT22;4746;35.664;139.738;2022-07-09T10:43:52;27.20;99.90
9414;DHT22;4746;35.664;139.738;2022-07-09T10:46:20;27.30;99.90
9414;DHT22;4746;35.664;139.738;2022-07-09T10:48:48;27.20;99.90
9414;DHT22;4746;35.664;139.738;2022-07-09T10:51:19;27.20;99.90
9414;DHT22;4746;35.664;139.738;2022-07-09T10:53:49;27.30;99.90
9414;DHT22;4746;35.664;139.738;2022-07-09T10:56:21;27.30;99.90
9414;DHT22;4746;35.664;139.738;2022-07-09T10:58:49;27.30;99.90
9414;DHT22;4746;35.664;139.738;2022-07-09T11:01:22;27.30;99.90
9414;DHT22;4746;35.664;139.738;2022-07-09T11:03:53;27.40;99.90
9414;DHT22;4746;35.664;139.738;2022-07-09T11:06:21;27.40;99.90
9414;DHT22;4746;35.664;139.738;2022-07-09T11:08:48;27.40;99.90
9414;DHT22;4746;35.664;139.738;2022-07-09T11:11:23;27.40;99.90
9414;DHT22;4746;35.664;139.738;2022-07-09T11:13:51;27.40;99.90
9414;DHT22;4746;35.664;139.738;2022-07-09T11:16:25;27.40;99.90
9414;DHT22;4746;35.664;139.738;2022-07-09T11:18:53;27.40;99.90
9414;DHT22;4746;35.664;139.738;2022-07-09T11:21:27;27.40;99.90
9414;DHT22;4746;35.664;139.738;2022-07-09T11:23:54;27.40;99.90
9414;DHT22;4746;35.664;139.738;2022-07-09T11:26:22;27.40;99.90
9414;DHT22;4746;35.664;139.738;2022-07-09T11:28:50;27.40;99.90
9414;DHT22;4746;35.664;139.738;2022-07-09T11:31:19;27.50;99.90
9414;DHT22;4746;35.664;139.738;2022-07-09T11:33:47;27.50;99.90
9414;DHT22;4746;35.664;139.738;2022-07-09T11:36:37;27.50;99.90
9414;DHT22;4746;35.664;139.738;2022-07-09T11:39:09;27.50;99.90
9414;DHT22;4746;35.664;139.738;2022-07-09T11:41:48;27.40;99.90
9414;DHT22;4746;35.664;139.738;2022-07-09T11:44:26;27.30;99.90
9414;DHT22;4746;35.664;139.738;2022-07-09T11:47:07;27.30;99.90
9414;DHT22;4746;35.664;139.738;2022-07-09T11:49:44;27.20;99.90
9414;DHT22;4746;35.664;139.738;2022-07-09T11:52:25;27.10;99.90
9414;DHT22;4746;35.664;139.738;2022-07-09T11:55:09;27.20;99.90
9414;DHT22;4746;35.664;139.738;2022-07-09T11:57:38;27.10;99.90
9414;DHT22;4746;35.664;139.738;2022-07-09T12:00:21;27.10;99.90
9414;DHT22;4746;35.664;139.738;2022-07-09T12:02:54;27.10;99.90
9414;DHT22;4746;35.664;139.738;2022-07-09T12:05:36;27.10;99.90
9414;DHT22;4746;35.664;139.738;2022-07-09T12:08:06;27.20;99.90
9414;DHT22;4746;35.664;139.738;2022-07-09T12:10:36;27.10;99.90
9414;DHT22;4746;35.664;139.738;2022-07-09T12:13:05;27.10;99.90
9414;DHT22;4746;35.664;139.738;2022-07-09T12:15:35;27.20;99.90
9414;DHT22;4746;35.664;139.738;2022-07-09T12:18:03;27.20;99.90
9414;DHT22;4746;35.664;139.738;2022-07-09T12:20:32;27.10;99.90
9414;DHT22;4746;35.664;139.738;2022-07-09T12:23:02;27.10;99.90
9414;DHT22;4746;35.664;139.738;2022-07-09T12:25:30;27.20;99.90
9414;DHT22;4746;35.664;139.738;2022-07-09T12:27:58;27.10;99.90
9414;DHT22;4746;35.664;139.738;2022-07-09T12:30:25;27.10;99.90
9414;DHT22;4746;35.664;139.738;2022-07-09T12:32:56;27.10;99.90
9414;DHT22;4746;35.664;139.738;2022-07-09T12:35:26;27.10;99.90
9414;DHT22;4746;35.664;139.738;2022-07-09T12:37:56;27.10;99.90
9414;DHT22;4746;35.664;139.738;2022-07-09T12:40:23;27.10;99.90
9414;DHT22;4746;35.664;139.738;2022-07-09T12:42:51;27.10;99.90
9414;DHT22;4746;35.664;139.738;2022-07-09T12:45:19;27.10;99.90
9414;DHT22;4746;35.664;139.738;2022-07-09T12:47:46;27.10;99.90
9414;DHT22;4746;35.664;139.738;2022-07-09T12:50:14;27.10;99.90
9414;DHT22;4746;35.664;139.738;2022-07-09T12:52:41;27.10;99.90
9414;DHT22;4746;35.664;139.738;2022-07-09T12:55:09;27.10;99.90
9414;DHT22;4746;35.664;139.738;2022-07-09T12:57:37;27.10;99.90
9414;DHT22;4746;35.664;139.738;2022-07-09T13:00:05;27.10;99.90
9414;DHT22;4746;35.664;139.738;2022-07-09T13:02:33;27.00;99.90
9414;DHT22;4746;35.664;139.738;2022-07-09T13:05:01;27.10;99.90
9414;DHT22;4746;35.664;139.738;2022-07-09T13:07:29;27.10;99.90
9414;DHT22;4746;35.664;139.738;2022-07-09T13:09:56;27.10;99.90
9414;DHT22;4746;35.664;139.738;2022-07-09T13:12:24;27.10;99.90
9414;DHT22;4746;35.664;139.738;2022-07-09T13:14:51;27.10;99.90
9414;DHT22;4746;35.664;139.738;2022-07-09T13:17:19;27.00;99.90
9414;DHT22;4746;35.664;139.738;2022-07-09T13:19:46;27.00;99.90
9414;DHT22;4746;35.664;139.738;2022-07-09T13:22:15;27.00;99.90
9414;DHT22;4746;35.664;139.738;2022-07-09T13:24:42;27.00;99.90
9414;DHT22;4746;35.664;139.738;2022-07-09T13:27:10;27.00;99.90
9414;DHT22;4746;35.664;139.738;2022-07-09T13:29:39;27.00;99.90
9414;DHT22;4746;35.664;139.738;2022-07-09T13:32:06;26.90;99.90
9414;DHT22;4746;35.664;139.738;2022-07-09T13:34:35;26.80;99.90
9414;DHT22;4746;35.664;139.738;2022-07-09T13:37:03;26.80;99.90
9414;DHT22;4746;35.664;139.738;2022-07-09T13:39:31;26.80;99.90
9414;DHT22;4746;35.664;139.738;2022-07-09T13:41:58;26.80;99.90
9414;DHT22;4746;35.664;139.738;2022-07-09T13:44:26;26.80;99.90
9414;DHT22;4746;35.664;139.738;2022-07-09T13:46:53;26.70;99.90
9414;DHT22;4746;35.664;139.738;2022-07-09T13:49:21;26.80;99.90
9414;DHT22;4746;35.664;139.738;2022-07-09T13:51:49;26.70;99.90
9414;DHT22;4746;35.664;139.738;2022-07-09T13:54:17;26.80;99.90
9414;DHT22;4746;35.664;139.738;2022-07-09T13:56:44;26.80;99.90
9414;DHT22;4746;35.664;139.738;2022-07-09T13:59:12;26.80;99.90
9414;DHT22;4746;35.664;139.738;2022-07-09T14:01:40;26.80;99.90
9414;DHT22;4746;35.664;139.738;2022-07-09T14:04:07;26.80;99.90
9414;DHT22;4746;35.664;139.738;2022-07-09T14:06:35;26.80;99.90
9414;DHT22;4746;35.664;139.738;2022-07-09T14:09:03;26.80;99.90
9414;DHT22;4746;35.664;139.738;2022-07-09T14:11:31;26.80;99.90
9414;DHT22;4746;35.664;139.738;2022-07-09T14:13:59;26.80;99.90
9414;DHT22;4746;35.664;139.738;2022-07-09T14:16:27;26.80;99.90
9414;DHT22;4746;35.664;139.738;2022-07-09T14:18:54;26.80;99.90
9414;DHT22;4746;35.664;139.738;2022-07-09T14:21:22;26.80;99.90
9414;DHT22;4746;35.664;139.738;2022-07-09T14:23:49;26.80;99.90
9414;DHT22;4746;35.664;139.738;2022-07-09T14:26:17;26.80;99.90
9414;DHT22;4746;35.664;139.738;2022-07-09T14:28:45;26.80;99.90
9414;DHT22;4746;35.664;139.738;2022-07-09T14:31:12;26.80;99.90
9414;DHT22;4746;35.664;139.738;2022-07-09T14:33:40;26.80;99.90
9414;DHT22;4746;35.664;139.738;2022-07-09T14:36:08;26.80;99.90
9414;DHT22;4746;35.664;139.738;2022-07-09T14:38:35;26.80;99.90
9414;DHT22;4746;35.664;139.738;2022-07-09T14:41:03;26.80;99.90
9414;DHT22;4746;35.664;139.738;2022-07-09T14:43:32;26.90;99.90
9414;DHT22;4746;35.664;139.738;2022-07-09T14:45:59;26.80;99.90
9414;DHT22;4746;35.664;139.738;2022-07-09T14:48:27;26.80;99.90
9414;DHT22;4746;35.664;139.738;2022-07-09T14:50:55;26.80;99.90
9414;DHT22;4746;35.664;139.738;2022-07-09T14:53:22;26.80;99.90
9414;DHT22;4746;35.664;139.738;2022-07-09T14:55:50;26.80;99.90
9414;DHT22;4746;35.664;139.738;2022-07-09T14:58:18;26.80;99.90
9414;DHT22;4746;35.664;139.738;2022-07-09T15:00:46;26.80;99.90
9414;DHT22;4746;35.664;139.738;2022-07-09T15:03:13;26.80;99.90
9414;DHT22;4746;35.664;139.738;2022-07-09T15:05:41;26.80;99.90
9414;DHT22;4746;35.664;139.738;2022-07-09T15:08:09;26.80;99.90
9414;DHT22;4746;35.664;139.738;2022-07-09T15:10:37;26.90;99.90
9414;DHT22;4746;35.664;139.738;2022-07-09T15:13:05;26.90;99.90
9414;DHT22;4746;35.664;139.738;2022-07-09T15:15:35;26.90;99.90
9414;DHT22;4746;35.664;139.738;2022-07-09T15:18:03;26.90;99.90
9414;DHT22;4746;35.664;139.738;2022-07-09T15:20:32;26.90;99.90
9414;DHT22;4746;35.664;139.738;2022-07-09T15:23:01;26.90;99.90
9414;DHT22;4746;35.664;139.738;2022-07-09T15:25:29;27.00;99.90
9414;DHT22;4746;35.664;139.738;2022-07-09T15:27:56;27.00;99.90
9414;DHT22;4746;35.664;139.738;2022-07-09T15:30:24;27.00;99.90
9414;DHT22;4746;35.664;139.738;2022-07-09T15:32:52;27.00;99.90
9414;DHT22;4746;35.664;139.738;2022-07-09T15:35:20;27.00;99.90
9414;DHT22;4746;35.664;139.738;2022-07-09T15:37:47;27.00;99.90